createdAt,value
2022-08-30T00:01:40.556Z,24.54
2022-08-30T00:06:32.915Z,24.52
2022-08-30T00:11:25.284Z,24.51
2022-08-30T00:16:17.710Z,24.45
2022-08-30T00:21:10.265Z,24.45
2022-08-30T00:26:02.810Z,24.46
2022-08-30T00:30:55.428Z,24.42
2022-08-30T00:35:47.871Z,24.4
2022-08-30T00:40:40.452Z,24.41
2022-08-30T00:45:32.932Z,24.42
2022-08-30T00:50:25.449Z,24.35
2022-08-30T00:55:17.983Z,24.35
2022-08-30T01:00:10.488Z,24.33
2022-08-30T01:05:03.232Z,24.32
2022-08-30T01:09:55.894Z,24.27
2022-08-30T01:14:48.437Z,24.27
2022-08-30T01:19:41.265Z,24.24
2022-08-30T01:24:33.809Z,24.21
2022-08-30T01:29:26.409Z,24.26
2022-08-30T01:34:18.966Z,24.2
2022-08-30T01:39:11.706Z,24.23
2022-08-30T01:44:05.950Z,24.18
2022-08-30T01:48:58.154Z,24.14
2022-08-30T01:53:50.862Z,24.11
2022-08-30T01:58:43.330Z,24.12
2022-08-30T02:03:35.937Z,24.11
2022-08-30T02:08:28.449Z,24.09
2022-08-30T02:13:20.749Z,24.1
2022-08-30T02:18:13.203Z,24.07
2022-08-30T02:23:05.986Z,24.05
2022-08-30T02:27:58.482Z,24
2022-08-30T02:32:50.890Z,23.99
2022-08-30T02:37:43.469Z,23.98
2022-08-30T02:42:35.903Z,23.97
2022-08-30T02:47:28.491Z,23.96
2022-08-30T02:52:22.597Z,23.97
2022-08-30T02:57:19.899Z,23.95
2022-08-30T03:02:06.155Z,23.91
2022-08-30T03:06:58.608Z,23.87
2022-08-30T03:11:50.787Z,23.89
2022-08-30T03:16:43.513Z,23.88
2022-08-30T03:21:36.059Z,23.85
2022-08-30T03:26:28.783Z,23.84
2022-08-30T03:31:21.295Z,23.83
2022-08-30T03:36:13.926Z,23.82
2022-08-30T03:41:07.157Z,23.81
2022-08-30T03:45:58.955Z,23.78
2022-08-30T03:50:51.340Z,23.76
2022-08-30T03:55:44.042Z,23.79
2022-08-30T04:00:36.979Z,23.75
2022-08-30T04:05:29.482Z,23.73
2022-08-30T04:10:22.164Z,23.72
2022-08-30T04:15:14.701Z,23.73
2022-08-30T04:20:07.409Z,23.67
2022-08-30T04:24:59.792Z,23.4
2022-08-30T04:29:52.050Z,23.34
2022-08-30T04:34:44.269Z,23.06
2022-08-30T04:39:36.734Z,22.99
2022-08-30T04:44:29.238Z,23.06
2022-08-30T04:49:22.311Z,23.17
2022-08-30T04:54:14.598Z,23.04
2022-08-30T04:59:07.171Z,22.9
2022-08-30T05:03:59.611Z,22.73
2022-08-30T05:08:52.020Z,22.47
2022-08-30T05:13:44.731Z,22.72
2022-08-30T05:18:37.241Z,22.47
2022-08-30T05:23:29.997Z,22.4
2022-08-30T05:28:25.996Z,22.55
2022-08-30T05:33:15.015Z,22.57
2022-08-30T05:38:07.251Z,22.42
2022-08-30T05:43:00.073Z,22.44
2022-08-30T05:47:52.864Z,22.53
2022-08-30T05:52:45.240Z,22.19
2022-08-30T05:57:37.852Z,22.54
2022-08-30T06:02:30.279Z,22.56
2022-08-30T06:07:22.954Z,22.73
2022-08-30T06:12:15.707Z,22.89
2022-08-30T06:17:08.392Z,22.97
2022-08-30T06:22:01.177Z,23.03
2022-08-30T06:26:53.958Z,23.04
2022-08-30T06:31:46.632Z,23.07
2022-08-30T06:36:39.111Z,23.09
2022-08-30T06:41:31.600Z,23.09
2022-08-30T06:51:11.831Z,23.11
2022-08-30T06:56:05.521Z,23.11
2022-08-30T07:00:58.133Z,23.12
2022-08-30T07:05:50.851Z,23.12
2022-08-30T07:10:43.248Z,23.09
2022-08-30T07:15:38.332Z,23.1
2022-08-30T07:20:28.365Z,23.12
2022-08-30T07:25:20.806Z,23.12
2022-08-30T07:30:13.351Z,23.12
2022-08-30T07:35:06.048Z,23.15
2022-08-30T07:39:58.388Z,23.16
2022-08-30T07:44:53.651Z,23.19
2022-08-30T07:49:43.709Z,23.18
2022-08-30T07:54:36.346Z,23.2
2022-08-30T07:59:30.774Z,23.22
2022-08-30T08:04:21.663Z,23.22
2022-08-30T08:09:14.352Z,23.21
2022-08-30T08:14:06.332Z,22.98
2022-08-30T08:18:57.984Z,22.99
2022-08-30T08:23:50.721Z,22.96
2022-08-30T08:33:30.864Z,23.06
2022-08-30T08:38:24.578Z,23.19
2022-08-30T08:43:17.061Z,23.16
2022-08-30T08:48:09.696Z,23.2
2022-08-30T08:53:02.638Z,23.39
2022-08-30T08:57:55.438Z,23.38
2022-08-30T09:02:47.871Z,23.46
2022-08-30T09:07:40.542Z,23.49
2022-08-30T09:12:33.178Z,23.56
2022-08-30T09:17:25.684Z,23.48
2022-08-30T09:22:18.442Z,23.6
2022-08-30T09:27:10.901Z,23.67
2022-08-30T09:32:22.812Z,23.63
2022-08-30T09:36:55.895Z,23.6
2022-08-30T09:41:48.493Z,23.63
2022-08-30T09:46:40.949Z,23.66
2022-08-30T09:51:33.561Z,23.76
2022-08-30T09:56:26.339Z,23.8
2022-08-30T10:06:06.522Z,23.93
2022-08-30T10:11:00.224Z,23.97
2022-08-30T10:15:52.916Z,24.03
2022-08-30T10:20:45.301Z,24.07
2022-08-30T10:25:37.992Z,24.1
2022-08-30T10:30:30.778Z,24.12
2022-08-30T10:35:23.537Z,24.14
2022-08-30T10:40:16.064Z,24.16
2022-08-30T10:45:08.558Z,24.2
2022-08-30T10:50:00.920Z,24.23
2022-08-30T10:54:53.597Z,24.25
2022-08-30T10:59:46.127Z,24.27
2022-08-30T11:04:38.693Z,24.29
2022-08-30T11:09:31.423Z,24.3
2022-08-30T11:14:25.440Z,24.36
2022-08-30T11:19:16.709Z,24.34
2022-08-30T11:24:11.562Z,24.36
2022-08-30T11:29:02.118Z,24.38
2022-08-30T11:33:54.736Z,24.47
2022-08-30T11:38:47.543Z,24.52
2022-08-30T11:43:40.499Z,24.57
2022-08-30T11:48:32.955Z,24.66
2022-08-30T11:53:25.535Z,24.67
2022-08-30T11:58:18.303Z,24.79
2022-08-30T12:03:11.266Z,24.94
2022-08-30T12:08:04.029Z,25.07
2022-08-30T12:12:56.824Z,25.14
2022-08-30T12:17:50.654Z,25.21
2022-08-30T12:22:42.323Z,25.33
2022-08-30T12:27:34.786Z,25.44
2022-08-30T12:32:27.417Z,25.48
2022-08-30T12:37:20.026Z,25.4
2022-08-30T12:42:12.735Z,25.45
2022-08-30T12:47:05.421Z,25.54
2022-08-30T12:51:57.861Z,25.62
2022-08-30T12:56:50.519Z,25.58
2022-08-30T13:01:43.343Z,25.73
2022-08-30T13:06:36.036Z,25.72
2022-08-30T13:11:29.303Z,25.65
2022-08-30T13:16:20.742Z,25.78
2022-08-30T13:21:13.041Z,25.99
2022-08-30T13:26:05.768Z,26.02
2022-08-30T13:30:58.057Z,25.89
2022-08-30T13:35:50.496Z,25.83
2022-08-30T13:40:43.054Z,25.85
2022-08-30T13:45:42.938Z,25.78
2022-08-30T13:50:28.237Z,25.77
2022-08-30T13:55:21.018Z,25.71
2022-08-30T14:00:14.458Z,25.7
2022-08-30T14:05:06.338Z,25.66
2022-08-30T14:10:30.296Z,25.7
2022-08-30T14:14:51.266Z,25.73
2022-08-30T14:19:44.150Z,25.69
2022-08-30T14:24:36.448Z,25.65
2022-08-30T14:29:31.196Z,25.65
2022-08-30T14:34:23.378Z,25.59
2022-08-30T14:39:15.878Z,25.58
2022-08-30T14:44:08.377Z,25.66
2022-08-30T14:49:00.992Z,25.64
2022-08-30T14:53:53.710Z,25.65
2022-08-30T14:58:46.287Z,25.65
2022-08-30T15:03:38.815Z,25.66
2022-08-30T15:08:31.505Z,25.64
2022-08-30T15:13:24.126Z,25.65
2022-08-30T15:18:17.236Z,25.66
2022-08-30T15:23:09.701Z,25.71
2022-08-30T15:28:02.424Z,25.74
2022-08-30T15:32:55.012Z,25.74
2022-08-30T15:37:47.744Z,25.76
2022-08-30T15:42:40.377Z,25.76
2022-08-30T15:47:33.186Z,25.75
2022-08-30T15:52:25.615Z,25.79
2022-08-30T15:57:18.193Z,25.58
2022-08-30T16:02:10.814Z,25.79
2022-08-30T16:07:03.373Z,25.82
2022-08-30T16:11:55.439Z,25.84
2022-08-30T16:16:48.061Z,25.83
2022-08-30T16:21:40.627Z,25.84
2022-08-30T16:26:33.271Z,25.84
2022-08-30T16:31:26.075Z,25.85
2022-08-30T16:36:18.196Z,25.87
2022-08-30T16:41:10.895Z,25.85
2022-08-30T16:46:03.518Z,25.84
2022-08-30T16:50:56.065Z,25.83
2022-08-30T16:55:48.840Z,25.8
2022-08-30T17:00:41.467Z,25.81
2022-08-30T17:05:34.022Z,25.78
2022-08-30T17:10:31.356Z,25.76
2022-08-30T17:15:19.365Z,25.75
2022-08-30T17:20:11.814Z,25.72
2022-08-30T17:25:05.154Z,25.71
2022-08-30T17:29:57.687Z,25.69
2022-08-30T17:34:50.377Z,25.66
2022-08-30T17:39:42.885Z,25.66
2022-08-30T17:44:35.703Z,25.67
2022-08-30T17:49:27.613Z,25.65
2022-08-30T17:54:20.346Z,25.64
2022-08-30T17:59:13.172Z,25.63
2022-08-30T18:04:06.203Z,25.62
2022-08-30T18:08:58.376Z,25.62
2022-08-30T18:13:50.934Z,25.58
2022-08-30T18:18:43.664Z,25.6
2022-08-30T18:23:40.400Z,25.61
2022-08-30T18:28:32.224Z,25.59
2022-08-30T18:33:24.776Z,25.57
2022-08-30T18:38:17.179Z,25.57
2022-08-30T18:43:09.603Z,25.58
2022-08-30T18:48:02.151Z,25.52
2022-08-30T18:52:56.063Z,25.51
2022-08-30T18:57:47.097Z,25.51
2022-08-30T19:02:39.596Z,25.48
2022-08-30T19:07:34.226Z,25.5
2022-08-30T19:12:24.423Z,25.49
2022-08-30T19:17:16.897Z,25.46
2022-08-30T19:22:09.751Z,25.51
2022-08-30T19:27:02.459Z,25.52
2022-08-30T19:31:55.183Z,25.48
2022-08-30T19:36:47.805Z,25.49
2022-08-30T19:41:40.379Z,25.47
2022-08-30T19:46:32.778Z,25.47
2022-08-30T19:51:25.419Z,25.48
2022-08-30T19:56:17.919Z,25.47
2022-08-30T20:01:10.545Z,25.46
2022-08-30T20:06:02.938Z,25.43
2022-08-30T20:10:55.501Z,25.44
2022-08-30T20:15:47.954Z,25.4
2022-08-30T20:20:40.416Z,25.44
2022-08-30T20:25:33.260Z,25.43
2022-08-30T20:30:25.707Z,25.44
2022-08-30T20:35:18.205Z,25.42
2022-08-30T20:40:14.972Z,25.4
2022-08-30T20:45:03.128Z,25.4
2022-08-30T20:49:55.518Z,25.39
2022-08-30T20:54:48.125Z,25.36
2022-08-30T20:59:40.655Z,25.36
2022-08-30T21:04:33.332Z,25.32
2022-08-30T21:09:25.974Z,25.32
2022-08-30T21:14:18.243Z,25.33
2022-08-30T21:19:10.877Z,25.3
2022-08-30T21:24:03.650Z,25.31
2022-08-30T21:28:56.147Z,25.29
2022-08-30T21:33:48.561Z,25.27
2022-08-30T21:38:41.247Z,25.28
2022-08-30T21:43:33.556Z,25.25
2022-08-30T21:48:26.116Z,25.24
2022-08-30T21:53:19.023Z,25.22
2022-08-30T21:58:11.796Z,25.21
2022-08-30T22:03:04.478Z,25.21
2022-08-30T22:07:57.094Z,25.21
2022-08-30T22:12:49.691Z,25.19
2022-08-30T22:17:42.368Z,25.18
2022-08-30T22:22:34.428Z,25.17
2022-08-30T22:27:27.023Z,25.16
2022-08-30T22:32:19.710Z,25.15
2022-08-30T22:37:12.255Z,25.13
2022-08-30T22:42:04.641Z,25.13
2022-08-30T22:46:57.130Z,25.11
2022-08-30T22:51:49.443Z,25.09
2022-08-30T22:56:41.922Z,25.09
2022-08-30T23:01:34.625Z,25.08
2022-08-30T23:06:26.669Z,25.08
2022-08-30T23:11:19.253Z,25.07
2022-08-30T23:16:11.941Z,25.06
2022-08-30T23:21:04.592Z,25.06
2022-08-30T23:25:57.324Z,25.04
2022-08-30T23:30:49.733Z,25.07
2022-08-30T23:35:42.455Z,25.08
2022-08-30T23:40:35.051Z,25.06
2022-08-30T23:45:27.473Z,25.06
2022-08-30T23:50:19.937Z,25.04
2022-08-30T23:55:12.586Z,25.04
